map of RDZ home
RDZ - Airport
Location
City:  Rodez, Midi-Pyrénées, France
Name:Marcillac
ICAO:LFCR
IATA:RDZ

Details
Type:Airport (Aerodrome, Airfield)
Use:Public/Civil
Latitude:44°24'27"N (44.407500)
Longitude:2°29'00"E (2.483333)
Elevation:1910 ft (582 m)
Variation:1.16°E (WMM2015v2 magnetic declination)
0.16° annual change
Runways:2
Longest:6693 × 148 ft (2040 × 45 m), paved

Time
Time Zone:UTC+1 (DST+2)
Local Time:

Weather
METAR:LFCR 041400Z AUTO 29004KT 270V330 CAVOK 03/M03 Q1026 NOSIG
TAF:LFCR 041100Z 0412/0512 VRB02KT CAVOK
BECMG 0421/0423 OVC013
TEMPO 0423/0506 3000 -RASN OVC006 PROB40
TEMPO 0423/0506 1200 -SN OVC002 PROB30
TEMPO 0500/0504 -FZDZ OVC001
BECMG 0510/0512 BKN020

Related Locations
Nearby:
Farthest:CHT: 12369 mi / 19906 km
Waitangi [Tuuta], CIT, NZ

Find:

   beyond  
but within

Other Information
Maps:
NOTAMs:
Links:
Sources:

  
  • flag of France
  • flag of Midi-Pyrénées
  

Sectional Chart

Flight Planning
at skyvector.com

Satellite Image

Google Maps Satellite view

 

Copyright © 2004-2019 Karl L. Swartz. All rights reserved.
The Great Circle Mapper name and logo are trademarks of the Great Circle Mapper.
All other trademarks mentioned herein belong to their respective owners.
Please see credits for attibutions and further copyright information.

  Follow gcmap on Facebook Follow gcmap on Twitter GCmap on LinkedIn

hCard Microformat

Geo Microformat